sensor_id;sensor_type;location;lat;lon;timestamp;pressure;altitude;pressure_sealevel;temperature;humidity
72921;BME280;61064;51.654;5.476;2023-04-01T00:00:55;99149.38;;;10.15;91.25
72921;BME280;61064;51.654;5.476;2023-04-01T00:03:22;99155.56;;;10.16;91.04
72921;BME280;61064;51.654;5.476;2023-04-01T00:05:47;99112.75;;;9.85;91.26
72921;BME280;61064;51.654;5.476;2023-04-01T00:08:13;99121.34;;;9.97;91.17
72921;BME280;61064;51.654;5.476;2023-04-01T00:10:39;99164.44;;;10.16;91.16
72921;BME280;61064;51.654;5.476;2023-04-01T00:13:04;99168.84;;;10.16;91.28
72921;BME280;61064;51.654;5.476;2023-04-01T00:15:30;99156.47;;;10.16;91.15
72921;BME280;61064;51.654;5.476;2023-04-01T00:17:56;99158.22;;;10.16;91.53
72921;BME280;61064;51.654;5.476;2023-04-01T00:20:21;99163.53;;;10.16;91.33
72921;BME280;61064;51.654;5.476;2023-04-01T00:22:47;99170.69;;;10.12;91.27
72921;BME280;61064;51.654;5.476;2023-04-01T00:25:13;99160.19;;;10.05;91.34
72921;BME280;61064;51.654;5.476;2023-04-01T00:27:39;99149.56;;;10.05;91.50
72921;BME280;61064;51.654;5.476;2023-04-01T00:30:04;99132.06;;;9.94;91.50
72921;BME280;61064;51.654;5.476;2023-04-01T00:32:30;99097.03;;;9.73;91.40
72921;BME280;61064;51.654;5.476;2023-04-01T00:34:56;99167.16;;;10.12;91.43
72921;BME280;61064;51.654;5.476;2023-04-01T00:37:25;99170.81;;;10.05;91.45
72921;BME280;61064;51.654;5.476;2023-04-01T00:39:50;99137.38;;;9.93;91.56
72921;BME280;61064;51.654;5.476;2023-04-01T00:42:16;99183.03;;;10.16;91.63
72921;BME280;61064;51.654;5.476;2023-04-01T00:44:42;99144.44;;;9.95;91.62
72921;BME280;61064;51.654;5.476;2023-04-01T00:47:07;99173.28;;;10.15;91.71
72921;BME280;61064;51.654;5.476;2023-04-01T00:49:37;99158.47;;;10.02;91.67
72921;BME280;61064;51.654;5.476;2023-04-01T00:52:05;99176.91;;;10.10;91.59
72921;BME280;61064;51.654;5.476;2023-04-01T00:54:32;99189.22;;;10.17;91.68
72921;BME280;61064;51.654;5.476;2023-04-01T00:57:02;99191.00;;;10.18;91.81
72921;BME280;61064;51.654;5.476;2023-04-01T00:59:35;99180.44;;;10.12;91.71
72921;BME280;61064;51.654;5.476;2023-04-01T01:02:03;99176.09;;;10.08;91.81
72921;BME280;61064;51.654;5.476;2023-04-01T01:04:33;99198.94;;;10.19;91.89
72921;BME280;61064;51.654;5.476;2023-04-01T01:15:32;99196.31;;;10.15;91.71
72921;BME280;61064;51.654;5.476;2023-04-01T01:26:12;99206.03;;;10.19;91.81
72921;BME280;61064;51.654;5.476;2023-04-01T01:31:52;99208.72;;;10.17;92.09
72921;BME280;61064;51.654;5.476;2023-04-01T01:37:11;99208.72;;;10.17;92.23
72921;BME280;61064;51.654;5.476;2023-04-01T01:39:39;99203.44;;;10.13;92.00
72921;BME280;61064;51.654;5.476;2023-04-01T01:42:11;99201.72;;;10.10;92.25
72921;BME280;61064;51.654;5.476;2023-04-01T01:44:37;99166.75;;;9.85;92.14
72921;BME280;61064;51.654;5.476;2023-04-01T01:47:03;99222.00;;;10.17;92.27
72921;BME280;61064;51.654;5.476;2023-04-01T01:49:31;99179.09;;;9.88;92.05
72921;BME280;61064;51.654;5.476;2023-04-01T01:51:58;99191.28;;;9.98;92.19
72921;BME280;61064;51.654;5.476;2023-04-01T01:54:23;99232.59;;;10.19;92.39
72921;BME280;61064;51.654;5.476;2023-04-01T01:56:51;99206.25;;;10.03;92.23
72921;BME280;61064;51.654;5.476;2023-04-01T01:59:20;99188.78;;;9.90;92.14
72921;BME280;61064;51.654;5.476;2023-04-01T02:01:50;99158.00;;;9.79;92.17
72921;BME280;61064;51.654;5.476;2023-04-01T02:04:18;99237.06;;;10.17;92.16
72921;BME280;61064;51.654;5.476;2023-04-01T02:06:50;99222.94;;;10.12;92.36
72921;BME280;61064;51.654;5.476;2023-04-01T02:09:19;99203.69;;;9.99;92.43
72921;BME280;61064;51.654;5.476;2023-04-01T02:11:52;99192.38;;;9.88;92.20
72921;BME280;61064;51.654;5.476;2023-04-01T02:14:23;99240.66;;;10.11;92.50
72921;BME280;61064;51.654;5.476;2023-04-01T02:17:04;99203.88;;;9.88;92.27
72921;BME280;61064;51.654;5.476;2023-04-01T02:19:46;99229.19;;;10.09;92.41
72921;BME280;61064;51.654;5.476;2023-04-01T02:22:20;99229.38;;;9.98;92.39
72921;BME280;61064;51.654;5.476;2023-04-01T02:24:47;99214.59;;;9.82;92.43
72921;BME280;61064;51.654;5.476;2023-04-01T02:27:14;99194.47;;;9.69;92.51
72921;BME280;61064;51.654;5.476;2023-04-01T02:29:40;99208.50;;;9.76;92.54
72921;BME280;61064;51.654;5.476;2023-04-01T02:32:05;99168.22;;;9.51;92.35
72921;BME280;61064;51.654;5.476;2023-04-01T02:34:32;99213.81;;;9.77;92.58
72921;BME280;61064;51.654;5.476;2023-04-01T02:36:58;99224.41;;;9.77;92.34
72921;BME280;61064;51.654;5.476;2023-04-01T02:39:24;99200.69;;;9.68;92.54
72921;BME280;61064;51.654;5.476;2023-04-01T02:41:52;99248.94;;;9.94;92.58
72921;BME280;61064;51.654;5.476;2023-04-01T02:44:18;99206.88;;;9.67;92.62
72921;BME280;61064;51.654;5.476;2023-04-01T02:46:44;99121.00;;;9.17;92.50
72921;BME280;61064;51.654;5.476;2023-04-01T02:49:10;99252.53;;;9.90;92.72
72921;BME280;61064;51.654;5.476;2023-04-01T02:51:35;99259.63;;;9.90;92.90
72921;BME280;61064;51.654;5.476;2023-04-01T02:54:01;99129.94;;;9.09;92.67
72921;BME280;61064;51.654;5.476;2023-04-01T02:56:26;99219.31;;;9.65;92.71
72921;BME280;61064;51.654;5.476;2023-04-01T02:58:53;99264.09;;;9.86;92.78
72921;BME280;61064;51.654;5.476;2023-04-01T03:01:19;99220.25;;;9.63;92.85
72921;BME280;61064;51.654;5.476;2023-04-01T03:03:44;99240.50;;;9.68;92.65
72921;BME280;61064;51.654;5.476;2023-04-01T03:06:12;99244.78;;;9.78;92.77
72921;BME280;61064;51.654;5.476;2023-04-01T03:08:38;99266.81;;;9.83;92.74
72921;BME280;61064;51.654;5.476;2023-04-01T03:11:04;99270.38;;;9.82;92.80
72921;BME280;61064;51.654;5.476;2023-04-01T03:13:29;99252.91;;;9.66;92.89
72921;BME280;61064;51.654;5.476;2023-04-01T03:15:55;99258.97;;;9.76;92.78
72921;BME280;61064;51.654;5.476;2023-04-01T03:18:20;99266.13;;;9.71;93.00
72921;BME280;61064;51.654;5.476;2023-04-01T03:20:45;99284.59;;;9.80;93.03
72921;BME280;61064;51.654;5.476;2023-04-01T03:23:11;99262.63;;;9.69;92.92
72921;BME280;61064;51.654;5.476;2023-04-01T03:25:36;99281.06;;;9.79;92.87
72921;BME280;61064;51.654;5.476;2023-04-01T03:28:02;99252.06;;;9.64;92.85
72921;BME280;61064;51.654;5.476;2023-04-01T03:30:28;99244.22;;;9.56;93.01
72921;BME280;61064;51.654;5.476;2023-04-01T03:32:59;99286.38;;;9.79;93.22
72921;BME280;61064;51.654;5.476;2023-04-01T03:35:27;99253.91;;;9.60;93.07
72921;BME280;61064;51.654;5.476;2023-04-01T03:37:53;99284.59;;;9.78;92.98
72921;BME280;61064;51.654;5.476;2023-04-01T03:40:18;99294.34;;;9.79;93.02
72921;BME280;61064;51.654;5.476;2023-04-01T03:42:44;99282.84;;;9.77;93.06
72921;BME280;61064;51.654;5.476;2023-04-01T03:45:10;99274.13;;;9.69;93.11
72921;BME280;61064;51.654;5.476;2023-04-01T03:47:37;99266.19;;;9.66;92.95
72921;BME280;61064;51.654;5.476;2023-04-01T03:50:03;99287.28;;;9.75;93.12
72921;BME280;61064;51.654;5.476;2023-04-01T03:52:28;99253.97;;;9.56;93.07
72921;BME280;61064;51.654;5.476;2023-04-01T03:54:53;99296.09;;;9.79;93.14
72921;BME280;61064;51.654;5.476;2023-04-01T03:57:19;99279.47;;;9.66;92.85
72921;BME280;61064;51.654;5.476;2023-04-01T03:59:44;99276.91;;;9.60;93.12
72921;BME280;61064;51.654;5.476;2023-04-01T04:02:09;99281.22;;;9.67;92.80
72921;BME280;61064;51.654;5.476;2023-04-01T04:04:35;99228.66;;;9.32;92.83
72921;BME280;61064;51.654;5.476;2023-04-01T04:07:00;99294.53;;;9.64;92.95
72921;BME280;61064;51.654;5.476;2023-04-01T04:09:25;99291.06;;;9.60;93.03
72921;BME280;61064;51.654;5.476;2023-04-01T04:11:51;99302.63;;;9.58;93.21
72921;BME280;61064;51.654;5.476;2023-04-01T04:14:16;99296.38;;;9.60;93.09
72921;BME280;61064;51.654;5.476;2023-04-01T04:16:42;99317.50;;;9.68;93.06
72921;BME280;61064;51.654;5.476;2023-04-01T04:19:07;99317.50;;;9.68;93.25
72921;BME280;61064;51.654;5.476;2023-04-01T04:21:33;99289.44;;;9.50;92.96
72921;BME280;61064;51.654;5.476;2023-04-01T04:23:59;99282.47;;;9.43;93.16
72921;BME280;61064;51.654;5.476;2023-04-01T04:26:25;99332.63;;;9.63;93.22
72921;BME280;61064;51.654;5.476;2023-04-01T04:28:51;99317.66;;;9.57;93.21
72921;BME280;61064;51.654;5.476;2023-04-01T04:31:20;99291.47;;;9.32;93.19
72921;BME280;61064;51.654;5.476;2023-04-01T04:33:46;99275.66;;;9.24;93.08
72921;BME280;61064;51.654;5.476;2023-04-01T04:36:11;99310.75;;;9.44;93.01
72921;BME280;61064;51.654;5.476;2023-04-01T04:38:37;99320.47;;;9.47;93.14
72921;BME280;61064;51.654;5.476;2023-04-01T04:41:02;99322.19;;;9.49;93.23
72921;BME280;61064;51.654;5.476;2023-04-01T04:43:27;99313.47;;;9.40;93.10
72921;BME280;61064;51.654;5.476;2023-04-01T04:45:53;99343.34;;;9.55;93.19
72921;BME280;61064;51.654;5.476;2023-04-01T04:48:18;99345.13;;;9.53;93.07
72921;BME280;61064;51.654;5.476;2023-04-01T04:50:49;99313.56;;;9.34;93.31
72921;BME280;61064;51.654;5.476;2023-04-01T04:53:16;99331.97;;;9.46;93.36
72921;BME280;61064;51.654;5.476;2023-04-01T04:55:46;99352.22;;;9.53;93.35
72921;BME280;61064;51.654;5.476;2023-04-01T04:58:12;99355.78;;;9.52;93.17
72921;BME280;61064;51.654;5.476;2023-04-01T05:00:37;99362.00;;;9.51;93.45
72921;BME280;61064;51.654;5.476;2023-04-01T05:03:03;99360.22;;;9.51;93.36
72921;BME280;61064;51.654;5.476;2023-04-01T05:05:28;99339.13;;;9.41;93.21
72921;BME280;61064;51.654;5.476;2023-04-01T05:07:53;99318.03;;;9.30;93.23
72921;BME280;61064;51.654;5.476;2023-04-01T05:10:19;99360.22;;;9.51;93.27
72921;BME280;61064;51.654;5.476;2023-04-01T05:12:46;99333.03;;;9.31;93.25
72921;BME280;61064;51.654;5.476;2023-04-01T05:15:11;99371.69;;;9.53;93.54
72921;BME280;61064;51.654;5.476;2023-04-01T05:17:37;99383.19;;;9.54;93.64
72921;BME280;61064;51.654;5.476;2023-04-01T05:20:02;99382.28;;;9.55;93.49
72921;BME280;61064;51.654;5.476;2023-04-01T05:22:28;99398.22;;;9.55;93.64
72921;BME280;61064;51.654;5.476;2023-04-01T05:24:53;99364.88;;;9.34;93.66
72921;BME280;61064;51.654;5.476;2023-04-01T05:27:18;99349.91;;;9.26;93.61
72921;BME280;61064;51.654;5.476;2023-04-01T05:29:44;99392.97;;;9.52;93.46
72921;BME280;61064;51.654;5.476;2023-04-01T05:32:09;99394.66;;;9.56;93.81
72921;BME280;61064;51.654;5.476;2023-04-01T05:34:34;99408.84;;;9.55;93.49
72921;BME280;61064;51.654;5.476;2023-04-01T05:37:00;99389.50;;;9.47;93.62
72921;BME280;61064;51.654;5.476;2023-04-01T05:39:25;99406.19;;;9.53;93.71
72921;BME280;61064;51.654;5.476;2023-04-01T05:41:51;99414.97;;;9.58;93.66
72921;BME280;61064;51.654;5.476;2023-04-01T05:44:17;99360.56;;;9.24;93.40
72921;BME280;61064;51.654;5.476;2023-04-01T05:46:43;99412.31;;;9.60;93.59
72921;BME280;61064;51.654;5.476;2023-04-01T05:49:08;99393.03;;;9.46;93.66
72921;BME280;61064;51.654;5.476;2023-04-01T05:51:33;99432.59;;;9.64;93.91
72921;BME280;61064;51.654;5.476;2023-04-01T05:53:59;99391.28;;;9.45;93.66
72921;BME280;61064;51.654;5.476;2023-04-01T05:56:24;99401.88;;;9.45;93.85
72921;BME280;61064;51.654;5.476;2023-04-01T05:58:53;99275.41;;;8.73;93.48
72921;BME280;61064;51.654;5.476;2023-04-01T06:01:19;99402.72;;;9.48;93.71
72921;BME280;61064;51.654;5.476;2023-04-01T06:03:45;99425.59;;;9.60;93.85
72921;BME280;61064;51.654;5.476;2023-04-01T06:06:16;99447.56;;;9.73;94.14
72921;BME280;61064;51.654;5.476;2023-04-01T06:08:44;99453.75;;;9.75;94.06
72921;BME280;61064;51.654;5.476;2023-04-01T06:14:16;99454.59;;;9.75;94.32
72921;BME280;61064;51.654;5.476;2023-04-01T06:16:54;99467.84;;;9.80;93.92
72921;BME280;61064;51.654;5.476;2023-04-01T06:28:16;99487.25;;;9.83;93.87
72921;BME280;61064;51.654;5.476;2023-04-01T06:53:37;99515.47;;;9.93;94.29
72921;BME280;61064;51.654;5.476;2023-04-01T06:56:10;99504.03;;;9.87;94.18
72921;BME280;61064;51.654;5.476;2023-04-01T06:58:42;99498.78;;;9.82;94.17
72921;BME280;61064;51.654;5.476;2023-04-01T07:01:15;99526.00;;;9.99;94.10
72921;BME280;61064;51.654;5.476;2023-04-01T07:03:47;99526.91;;;10.00;94.31
72921;BME280;61064;51.654;5.476;2023-04-01T07:06:24;99530.44;;;10.02;94.25
72921;BME280;61064;51.654;5.476;2023-04-01T07:08:53;99544.59;;;10.02;94.26
72921;BME280;61064;51.654;5.476;2023-04-01T07:11:26;99542.81;;;10.01;94.14
72921;BME280;61064;51.654;5.476;2023-04-01T07:14:22;99552.56;;;10.01;94.25
72921;BME280;61064;51.654;5.476;2023-04-01T07:19:36;99523.63;;;9.80;94.16
72921;BME280;61064;51.654;5.476;2023-04-01T07:24:54;99542.97;;;9.88;94.19
72921;BME280;61064;51.654;5.476;2023-04-01T07:27:19;99547.31;;;9.96;94.05
72921;BME280;61064;51.654;5.476;2023-04-01T07:29:45;99555.38;;;9.87;94.35
72921;BME280;61064;51.654;5.476;2023-04-01T07:32:18;99553.59;;;9.91;94.26
72921;BME280;61064;51.654;5.476;2023-04-01T07:46:15;99582.56;;;10.11;94.25
72921;BME280;61064;51.654;5.476;2023-04-01T07:48:52;99595.78;;;10.15;94.19
72921;BME280;61064;51.654;5.476;2023-04-01T07:51:59;99555.31;;;9.93;94.12
72921;BME280;61064;51.654;5.476;2023-04-01T07:55:06;99575.53;;;10.08;94.05
72921;BME280;61064;51.654;5.476;2023-04-01T07:57:37;99598.41;;;10.21;93.88
72921;BME280;61064;51.654;5.476;2023-04-01T08:00:19;99602.78;;;10.25;94.05
72921;BME280;61064;51.654;5.476;2023-04-01T08:06:00;99609.84;;;10.29;93.84
72921;BME280;61064;51.654;5.476;2023-04-01T08:08:36;99621.31;;;10.31;93.83
72921;BME280;61064;51.654;5.476;2023-04-01T08:13:46;99616.06;;;10.25;94.01
72921;BME280;61064;51.654;5.476;2023-04-01T08:16:29;99632.88;;;10.29;93.92
72921;BME280;61064;51.654;5.476;2023-04-01T08:21:51;99650.59;;;10.27;93.83
72921;BME280;61064;51.654;5.476;2023-04-01T08:26:58;99625.03;;;10.15;93.90
72921;BME280;61064;51.654;5.476;2023-04-01T08:30:47;99648.84;;;10.26;93.68
72921;BME280;61064;51.654;5.476;2023-04-01T08:32:44;99634.81;;;10.13;94.01
72921;BME280;61064;51.654;5.476;2023-04-01T08:35:37;99663.94;;;10.24;93.89
72921;BME280;61064;51.654;5.476;2023-04-01T08:38:10;99641.91;;;10.11;94.08
72921;BME280;61064;51.654;5.476;2023-04-01T08:41:00;99663.94;;;10.24;94.01
72921;BME280;61064;51.654;5.476;2023-04-01T08:48:44;99679.00;;;10.25;94.42
72921;BME280;61064;51.654;5.476;2023-04-01T08:51:46;99638.47;;;10.01;94.15
72921;BME280;61064;51.654;5.476;2023-04-01T08:54:19;99687.81;;;10.28;93.94
72921;BME280;61064;51.654;5.476;2023-04-01T08:56:57;99666.66;;;10.18;94.23
72921;BME280;61064;51.654;5.476;2023-04-01T08:59:32;99650.81;;;10.04;93.96
72921;BME280;61064;51.654;5.476;2023-04-01T09:02:25;99699.28;;;10.32;93.88
72921;BME280;61064;51.654;5.476;2023-04-01T09:08:00;99705.47;;;10.34;93.88
72921;BME280;61064;51.654;5.476;2023-04-01T09:13:59;99720.56;;;10.32;93.78
72921;BME280;61064;51.654;5.476;2023-04-01T09:38:29;99748.81;;;10.42;93.65
72921;BME280;61064;51.654;5.476;2023-04-01T09:40:58;99751.44;;;10.45;93.63
72921;BME280;61064;51.654;5.476;2023-04-01T09:48:46;99754.94;;;10.49;93.84
72921;BME280;61064;51.654;5.476;2023-04-01T09:54:24;99767.34;;;10.51;94.04
72921;BME280;61064;51.654;5.476;2023-04-01T10:10:47;99777.00;;;10.58;94.10
72921;BME280;61064;51.654;5.476;2023-04-01T10:25:38;99785.84;;;10.60;94.08
72921;BME280;61064;51.654;5.476;2023-04-01T10:36:56;99805.22;;;10.73;93.96
72921;BME280;61064;51.654;5.476;2023-04-01T10:39:48;99798.13;;;10.73;94.01
72921;BME280;61064;51.654;5.476;2023-04-01T10:42:49;99761.13;;;10.52;94.14
72921;BME280;61064;51.654;5.476;2023-04-01T10:51:08;99812.25;;;10.80;94.19
72921;BME280;61064;51.654;5.476;2023-04-01T11:02:36;99814.66;;;11.01;94.27
72921;BME280;61064;51.654;5.476;2023-04-01T11:16:55;99811.97;;;11.01;93.84
72921;BME280;61064;51.654;5.476;2023-04-01T11:22:14;99836.69;;;11.14;94.09
72921;BME280;61064;51.654;5.476;2023-04-01T11:27:56;99843.72;;;11.18;93.96
72921;BME280;61064;51.654;5.476;2023-04-01T11:30:38;99847.22;;;11.23;93.91
72921;BME280;61064;51.654;5.476;2023-04-01T11:33:36;99841.81;;;11.26;93.91
72921;BME280;61064;51.654;5.476;2023-04-01T11:36:11;99836.56;;;11.23;93.82
72921;BME280;61064;51.654;5.476;2023-04-01T11:50:26;99868.41;;;11.31;93.52
72921;BME280;61064;51.654;5.476;2023-04-01T11:53:16;99879.97;;;11.26;93.54
72921;BME280;61064;51.654;5.476;2023-04-01T11:56:01;99867.63;;;11.22;93.40
72921;BME280;61064;51.654;5.476;2023-04-01T11:58:43;99882.72;;;11.22;93.51
72921;BME280;61064;51.654;5.476;2023-04-01T12:07:06;99892.41;;;11.29;93.59
72921;BME280;61064;51.654;5.476;2023-04-01T12:12:40;99903.03;;;11.31;93.35
72921;BME280;61064;51.654;5.476;2023-04-01T12:20:46;99911.03;;;11.31;93.18
72921;BME280;61064;51.654;5.476;2023-04-01T12:26:19;99904.75;;;11.33;93.25
72921;BME280;61064;51.654;5.476;2023-04-01T12:29:09;99919.84;;;11.36;93.27
72921;BME280;61064;51.654;5.476;2023-04-01T12:31:52;99918.06;;;11.36;92.84
72921;BME280;61064;51.654;5.476;2023-04-01T12:37:30;99918.06;;;11.36;93.01
72921;BME280;61064;51.654;5.476;2023-04-01T12:40:40;99919.94;;;11.26;92.79
72921;BME280;61064;51.654;5.476;2023-04-01T12:45:55;99933.22;;;11.28;92.93
72921;BME280;61064;51.654;5.476;2023-04-01T13:02:19;99928.09;;;11.13;93.08
72921;BME280;61064;51.654;5.476;2023-04-01T13:05:31;99950.22;;;11.16;93.00
72921;BME280;61064;51.654;5.476;2023-04-01T13:11:09;99964.41;;;11.15;93.21
72921;BME280;61064;51.654;5.476;2023-04-01T13:29:39;99983.09;;;11.14;93.75
72921;BME280;61064;51.654;5.476;2023-04-01T13:32:19;99982.19;;;11.13;93.84
72921;BME280;61064;51.654;5.476;2023-04-01T13:35:23;99985.75;;;11.12;93.68
72921;BME280;61064;51.654;5.476;2023-04-01T13:41:20;99997.31;;;11.10;93.48
72921;BME280;61064;51.654;5.476;2023-04-01T13:43:52;99989.34;;;11.07;93.53
72921;BME280;61064;51.654;5.476;2023-04-01T13:46:40;99999.97;;;11.11;93.60
72921;BME280;61064;51.654;5.476;2023-04-01T13:49:31;100004.41;;;11.11;93.79
72921;BME280;61064;51.654;5.476;2023-04-01T13:52:20;100017.69;;;11.12;93.62
72921;BME280;61064;51.654;5.476;2023-04-01T13:55:18;100005.22;;;11.16;93.71
72921;BME280;61064;51.654;5.476;2023-04-01T14:01:15;100004.34;;;11.18;93.72
72921;BME280;61064;51.654;5.476;2023-04-01T14:03:52;100016.75;;;11.18;93.60
72921;BME280;61064;51.654;5.476;2023-04-01T14:12:31;99984.16;;;10.93;93.94
72921;BME280;61064;51.654;5.476;2023-04-01T14:17:44;100001.78;;;11.08;93.81
72921;BME280;61064;51.654;5.476;2023-04-01T14:20:22;100031.81;;;11.20;93.68
72921;BME280;61064;51.654;5.476;2023-04-01T14:23:13;100029.13;;;11.25;93.96
72921;BME280;61064;51.654;5.476;2023-04-01T14:25:55;100015.94;;;11.11;93.82
72921;BME280;61064;51.654;5.476;2023-04-01T14:40:20;100052.16;;;11.31;93.68
72921;BME280;61064;51.654;5.476;2023-04-01T14:43:07;100040.69;;;11.21;93.75
72921;BME280;61064;51.654;5.476;2023-04-01T14:45:45;100057.47;;;11.29;93.76
72921;BME280;61064;51.654;5.476;2023-04-01T14:54:14;100063.75;;;11.25;93.70
72921;BME280;61064;51.654;5.476;2023-04-01T14:59:25;100072.63;;;11.25;93.73
72921;BME280;61064;51.654;5.476;2023-04-01T15:02:18;100072.66;;;11.19;93.85
72921;BME280;61064;51.654;5.476;2023-04-01T15:05:15;100073.50;;;11.23;93.82
72921;BME280;61064;51.654;5.476;2023-04-01T15:07:56;100068.22;;;11.17;93.86
72921;BME280;61064;51.654;5.476;2023-04-01T15:16:54;100086.81;;;11.24;93.80
72921;BME280;61064;51.654;5.476;2023-04-01T15:30:52;100110.69;;;11.32;93.65
72921;BME280;61064;51.654;5.476;2023-04-01T15:36:39;100105.47;;;11.23;93.59
72921;BME280;61064;51.654;5.476;2023-04-01T15:41:54;100119.66;;;11.22;93.76
72921;BME280;61064;51.654;5.476;2023-04-01T15:50:23;100131.25;;;11.18;93.80
72921;BME280;61064;51.654;5.476;2023-04-01T15:53:10;100089.66;;;10.99;93.68
72921;BME280;61064;51.654;5.476;2023-04-01T15:55:48;100098.56;;;10.98;93.68
72921;BME280;61064;51.654;5.476;2023-04-01T16:07:10;100142.81;;;11.09;93.77
72921;BME280;61064;51.654;5.476;2023-04-01T16:12:43;100138.41;;;11.08;93.61
72921;BME280;61064;51.654;5.476;2023-04-01T16:15:20;100141.97;;;11.09;93.90
72921;BME280;61064;51.654;5.476;2023-04-01T16:20:19;100148.16;;;11.08;93.91
72921;BME280;61064;51.654;5.476;2023-04-01T16:22:55;100149.06;;;11.07;93.91
72921;BME280;61064;51.654;5.476;2023-04-01T16:25:40;100113.72;;;10.87;93.95
72921;BME280;61064;51.654;5.476;2023-04-01T16:28:24;100161.47;;;11.05;93.95
72921;BME280;61064;51.654;5.476;2023-04-01T16:37:03;100147.41;;;10.91;94.10
72921;BME280;61064;51.654;5.476;2023-04-01T16:40:46;100165.09;;;10.96;94.41
72921;BME280;61064;51.654;5.476;2023-04-01T16:43:04;100176.56;;;11.06;94.35
72921;BME280;61064;51.654;5.476;2023-04-01T16:45:56;100191.66;;;11.08;94.36
72921;BME280;61064;51.654;5.476;2023-04-01T16:48:28;100179.25;;;10.98;94.24
72921;BME280;61064;51.654;5.476;2023-04-01T16:51:02;100182.81;;;10.99;94.41
72921;BME280;61064;51.654;5.476;2023-04-01T16:56:22;100222.69;;;11.14;94.43
72921;BME280;61064;51.654;5.476;2023-04-01T17:01:30;100230.66;;;11.12;94.62
72921;BME280;61064;51.654;5.476;2023-04-01T17:04:16;100231.53;;;11.13;94.81
72921;BME280;61064;51.654;5.476;2023-04-01T17:06:55;100241.31;;;11.14;94.49
72921;BME280;61064;51.654;5.476;2023-04-01T17:17:38;100266.16;;;11.10;94.55
72921;BME280;61064;51.654;5.476;2023-04-01T17:23:18;100275.06;;;11.06;94.58
72921;BME280;61064;51.654;5.476;2023-04-01T17:25:56;100263.56;;;10.98;94.68
72921;BME280;61064;51.654;5.476;2023-04-01T17:28:50;100286.63;;;11.03;94.69
72921;BME280;61064;51.654;5.476;2023-04-01T17:34:17;100269.84;;;10.86;94.69
72921;BME280;61064;51.654;5.476;2023-04-01T17:40:00;100313.22;;;11.05;94.90
72921;BME280;61064;51.654;5.476;2023-04-01T17:42:48;100315.00;;;11.03;94.80
72921;BME280;61064;51.654;5.476;2023-04-01T17:47:49;100327.44;;;11.01;94.52
72921;BME280;61064;51.654;5.476;2023-04-01T17:59:11;100344.31;;;10.88;94.66
72921;BME280;61064;51.654;5.476;2023-04-01T18:04:40;100343.47;;;10.79;94.74
72921;BME280;61064;51.654;5.476;2023-04-01T18:09:56;100381.56;;;10.89;94.70
72921;BME280;61064;51.654;5.476;2023-04-01T18:16:02;100395.78;;;10.82;94.75
72921;BME280;61064;51.654;5.476;2023-04-01T18:21:19;100408.22;;;10.75;94.61
72921;BME280;61064;51.654;5.476;2023-04-01T18:24:06;100417.97;;;10.73;94.71
72921;BME280;61064;51.654;5.476;2023-04-01T18:26:39;100414.41;;;10.65;94.58
72921;BME280;61064;51.654;5.476;2023-04-01T18:29:13;100435.72;;;10.68;94.62
72921;BME280;61064;51.654;5.476;2023-04-01T18:31:47;100418.88;;;10.47;94.53
72921;BME280;61064;51.654;5.476;2023-04-01T18:34:54;100450.78;;;10.62;94.79
72921;BME280;61064;51.654;5.476;2023-04-01T18:37:42;100445.47;;;10.57;94.66
72921;BME280;61064;51.654;5.476;2023-04-01T18:40:43;100465.00;;;10.58;94.47
72921;BME280;61064;51.654;5.476;2023-04-01T18:43:19;100447.22;;;10.38;94.47
72921;BME280;61064;51.654;5.476;2023-04-01T18:45:57;100468.53;;;10.48;94.52
72921;BME280;61064;51.654;5.476;2023-04-01T18:49:05;100485.34;;;10.48;94.54
72921;BME280;61064;51.654;5.476;2023-04-01T18:51:48;100491.56;;;10.46;94.55
72921;BME280;61064;51.654;5.476;2023-04-01T18:54:27;100497.75;;;10.43;94.64
72921;BME280;61064;51.654;5.476;2023-04-01T18:57:03;100511.06;;;10.38;94.55
72921;BME280;61064;51.654;5.476;2023-04-01T18:59:43;100516.38;;;10.34;94.62
72921;BME280;61064;51.654;5.476;2023-04-01T19:02:31;100517.22;;;10.27;94.62
72921;BME280;61064;51.654;5.476;2023-04-01T19:05:04;100524.31;;;10.23;94.57
72921;BME280;61064;51.654;5.476;2023-04-01T19:10:37;100542.00;;;10.14;94.62
72921;BME280;61064;51.654;5.476;2023-04-01T19:21:29;100577.38;;;10.03;94.45
72921;BME280;61064;51.654;5.476;2023-04-01T19:24:33;100577.38;;;10.00;94.31
72921;BME280;61064;51.654;5.476;2023-04-01T19:27:31;100583.56;;;9.99;94.37
72921;BME280;61064;51.654;5.476;2023-04-01T19:35:41;100568.34;;;9.70;94.36
72921;BME280;61064;51.654;5.476;2023-04-01T19:38:30;100603.88;;;9.90;94.26
72921;BME280;61064;51.654;5.476;2023-04-01T19:44:26;100603.88;;;9.85;94.13
72921;BME280;61064;51.654;5.476;2023-04-01T19:49:42;100619.75;;;9.76;94.23
72921;BME280;61064;51.654;5.476;2023-04-01T19:52:35;100625.94;;;9.74;94.24
72921;BME280;61064;51.654;5.476;2023-04-01T19:58:14;100610.72;;;9.53;94.33
72921;BME280;61064;51.654;5.476;2023-04-01T20:00:44;100637.41;;;9.67;94.12
72921;BME280;61064;51.654;5.476;2023-04-01T20:03:16;100643.59;;;9.66;94.41
72921;BME280;61064;51.654;5.476;2023-04-01T20:06:22;100657.75;;;9.66;94.27
72921;BME280;61064;51.654;5.476;2023-04-01T20:09:06;100664.81;;;9.64;94.16
72921;BME280;61064;51.654;5.476;2023-04-01T20:11:55;100637.25;;;9.45;94.11
72921;BME280;61064;51.654;5.476;2023-04-01T20:14:40;100673.69;;;9.63;94.13
72921;BME280;61064;51.654;5.476;2023-04-01T20:17:21;100676.31;;;9.60;94.00
72921;BME280;61064;51.654;5.476;2023-04-01T20:19:59;100696.66;;;9.58;94.26
72921;BME280;61064;51.654;5.476;2023-04-01T20:25:09;100696.59;;;9.53;94.21
72921;BME280;61064;51.654;5.476;2023-04-01T20:27:43;100716.97;;;9.51;93.75
72921;BME280;61064;51.654;5.476;2023-04-01T20:39:18;100738.94;;;9.35;93.86
72921;BME280;61064;51.654;5.476;2023-04-01T20:44:26;100733.53;;;9.26;93.84
72921;BME280;61064;51.654;5.476;2023-04-01T20:47:06;100745.06;;;9.28;94.18
72921;BME280;61064;51.654;5.476;2023-04-01T20:49:59;100745.91;;;9.26;93.93
72921;BME280;61064;51.654;5.476;2023-04-01T20:52:39;100758.28;;;9.25;93.97